createdAt,value
2023-03-26T00:02:13.092Z,91182.44
2023-03-26T00:04:39.245Z,91195.41
2023-03-26T00:07:05.368Z,91179.81
2023-03-26T00:09:31.491Z,91170.63
2023-03-26T00:11:57.616Z,91153.03
2023-03-26T00:14:23.730Z,91164.34
2023-03-26T00:16:49.883Z,91159.66
2023-03-26T00:19:15.993Z,91160.59
2023-03-26T00:21:42.082Z,91164.13
2023-03-26T00:24:08.168Z,91163.19
2023-03-26T00:26:34.260Z,91153.03
2023-03-26T00:29:00.369Z,91151.53
2023-03-26T00:31:26.456Z,91167.66
2023-03-26T00:33:52.584Z,91159.00
2023-03-26T00:36:18.706Z,91161.88
2023-03-26T00:38:44.890Z,91167.44
2023-03-26T00:41:11.003Z,91158.19
2023-03-26T00:43:37.134Z,91160.69
2023-03-26T00:46:03.261Z,91170.00
2023-03-26T00:48:44.130Z,91175.09
2023-03-26T00:51:11.500Z,91181.16
2023-03-26T00:53:37.589Z,91177.09
2023-03-26T00:56:03.669Z,91175.91
2023-03-26T00:58:29.785Z,91190.38
2023-03-26T01:00:55.862Z,91182.75
2023-03-26T01:03:27.735Z,91189.97
2023-03-26T01:05:54.555Z,91175.97
2023-03-26T01:08:20.779Z,91184.81
2023-03-26T01:10:46.865Z,91183.06
2023-03-26T01:13:12.979Z,91179.50
2023-03-26T01:15:39.122Z,91187.38
2023-03-26T01:18:05.317Z,91186.09
2023-03-26T01:20:31.451Z,91193.31
2023-03-26T01:22:57.545Z,91177.53
2023-03-26T01:25:23.626Z,91169.38
2023-03-26T01:27:49.720Z,91177.94
2023-03-26T01:30:15.815Z,91174.88
2023-03-26T01:32:41.990Z,91173.81
2023-03-26T01:35:08.132Z,91181.84
2023-03-26T01:37:34.236Z,91182.53
2023-03-26T01:40:00.319Z,91174.88
2023-03-26T01:42:26.405Z,91169.53
2023-03-26T01:44:52.521Z,91165.56
2023-03-26T01:47:18.647Z,91155.47
2023-03-26T01:49:44.771Z,91143.25
2023-03-26T01:52:10.858Z,91148.97
2023-03-26T01:54:36.955Z,91143.38
2023-03-26T01:57:03.116Z,91123.50
2023-03-26T01:59:29.239Z,91115.34
2023-03-26T02:01:55.400Z,91115.41
2023-03-26T02:04:21.565Z,91119.16
2023-03-26T02:06:47.663Z,91101.00
2023-03-26T02:09:13.763Z,91081.41
2023-03-26T02:11:39.871Z,91091.78
2023-03-26T02:14:06.034Z,91084.72
2023-03-26T02:16:32.233Z,91084.28
2023-03-26T02:18:58.452Z,91097.28
2023-03-26T02:21:24.558Z,91093.84
2023-03-26T02:23:50.675Z,91093.97
2023-03-26T02:26:16.794Z,91093.47
2023-03-26T02:28:42.888Z,91087.38
2023-03-26T02:31:08.983Z,91089.75
2023-03-26T02:33:35.080Z,91083.66
2023-03-26T02:36:01.313Z,91076.38
2023-03-26T02:38:27.450Z,91073.81
2023-03-26T02:40:53.562Z,91078.63
2023-03-26T02:43:19.661Z,91071.06
2023-03-26T02:45:45.809Z,91061.78
2023-03-26T02:48:11.913Z,91067.41
2023-03-26T02:50:38.031Z,91068.63
2023-03-26T02:53:04.127Z,91072.41
2023-03-26T02:55:30.246Z,91069.50
2023-03-26T02:57:56.330Z,91054.44
2023-03-26T03:00:22.497Z,91058.81
2023-03-26T03:02:48.786Z,91047.19
2023-03-26T03:05:14.955Z,91047.66
2023-03-26T03:07:41.081Z,91047.81
2023-03-26T03:10:07.190Z,91042.88
2023-03-26T03:12:33.282Z,91032.13
2023-03-26T03:14:59.374Z,91037.63
2023-03-26T03:17:25.537Z,91035.47
2023-03-26T03:19:51.657Z,91029.25
2023-03-26T03:22:17.728Z,91021.84
2023-03-26T03:24:43.870Z,91022.78
2023-03-26T03:27:09.975Z,91009.22
2023-03-26T03:29:36.089Z,91008.94
2023-03-26T03:32:02.209Z,91001.38
2023-03-26T03:34:28.297Z,91001.94
2023-03-26T03:36:54.407Z,90992.41
2023-03-26T03:39:20.505Z,90997.22
2023-03-26T03:41:46.631Z,90982.97
2023-03-26T03:44:12.740Z,90984.63
2023-03-26T03:46:38.845Z,90980.75
2023-03-26T03:49:04.957Z,90978.88
2023-03-26T03:51:31.049Z,90975.25
2023-03-26T03:53:57.159Z,90967.78
2023-03-26T03:56:23.287Z,90977.34
2023-03-26T03:58:49.387Z,90969.56
2023-03-26T04:01:15.481Z,90971.03
2023-03-26T04:03:41.727Z,90972.63
2023-03-26T04:06:07.988Z,90973.28
2023-03-26T04:08:34.061Z,90963.56
2023-03-26T04:11:00.151Z,90954.00
2023-03-26T04:13:26.222Z,90960.44
2023-03-26T04:15:52.467Z,90944.50
2023-03-26T04:18:18.644Z,90939.75
2023-03-26T04:20:44.749Z,90944.50
2023-03-26T04:23:10.848Z,90937.06
2023-03-26T04:25:36.941Z,90925.13
2023-03-26T04:28:03.025Z,90929.16
2023-03-26T04:30:29.110Z,90908.72
2023-03-26T04:32:55.259Z,90918.16
2023-03-26T04:35:21.449Z,90914.97
2023-03-26T04:37:47.547Z,90901.16
2023-03-26T04:40:13.659Z,90883.34
2023-03-26T04:42:39.765Z,90892.06
2023-03-26T04:45:05.860Z,90897.38
2023-03-26T04:47:32.005Z,90890.53
2023-03-26T04:49:58.160Z,90883.41
2023-03-26T04:52:24.261Z,90881.34
2023-03-26T04:54:50.378Z,90892.00
2023-03-26T04:57:16.540Z,90886.00
2023-03-26T04:59:42.672Z,90865.06
2023-03-26T05:02:08.785Z,90852.59
2023-03-26T05:04:34.956Z,90852.88
2023-03-26T05:07:01.114Z,90842.31
2023-03-26T05:09:27.233Z,90838.09
2023-03-26T05:11:53.327Z,90834.25
2023-03-26T05:14:19.444Z,90826.22
2023-03-26T05:16:45.585Z,90834.34
2023-03-26T05:19:11.767Z,90834.81
2023-03-26T05:21:37.882Z,90827.78
2023-03-26T05:24:03.963Z,90819.34
2023-03-26T05:26:30.051Z,90840.72
2023-03-26T05:28:56.144Z,90851.03
2023-03-26T05:31:22.220Z,90867.63
2023-03-26T05:33:48.313Z,90884.16
2023-03-26T05:36:14.436Z,90888.88
2023-03-26T05:38:40.671Z,90889.13
2023-03-26T05:41:06.773Z,90896.41
2023-03-26T05:43:32.849Z,90901.13
2023-03-26T05:45:59.016Z,90907.44
2023-03-26T05:48:25.106Z,90915.88
2023-03-26T05:50:51.194Z,90921.03
2023-03-26T05:53:17.303Z,90935.66
2023-03-26T05:55:43.392Z,90943.84
2023-03-26T05:58:09.487Z,90950.03
2023-03-26T06:00:35.572Z,90944.63
2023-03-26T06:03:01.827Z,90947.69
2023-03-26T06:05:28.011Z,90940.97
2023-03-26T06:07:54.096Z,90939.81
2023-03-26T06:10:20.216Z,90940.53
2023-03-26T06:12:46.336Z,90934.16
2023-03-26T06:15:12.439Z,90911.50
2023-03-26T06:17:38.627Z,90909.72
2023-03-26T06:20:04.737Z,90889.44
2023-03-26T06:22:30.819Z,90888.81
2023-03-26T06:24:56.894Z,90882.50
2023-03-26T06:27:22.984Z,90886.72
2023-03-26T06:29:49.101Z,90890.69
2023-03-26T06:32:19.978Z,90888.50
2023-03-26T06:34:46.389Z,90879.41
2023-03-26T06:37:12.511Z,90866.81
2023-03-26T06:39:38.619Z,90849.09
2023-03-26T06:42:04.718Z,90835.16
2023-03-26T06:44:30.811Z,90820.38
2023-03-26T06:46:56.932Z,90815.50
2023-03-26T06:49:23.034Z,90798.91
2023-03-26T06:51:49.113Z,90789.84
2023-03-26T06:54:15.214Z,90784.94
2023-03-26T06:56:41.338Z,90783.03
2023-03-26T06:59:07.447Z,90776.97
2023-03-26T07:01:33.554Z,90776.19
2023-03-26T07:03:59.905Z,90774.56
2023-03-26T07:06:26.353Z,90767.34
2023-03-26T07:08:52.465Z,90779.75
2023-03-26T07:11:18.565Z,90798.09
2023-03-26T07:13:44.648Z,90801.22
2023-03-26T07:16:10.742Z,90807.13
2023-03-26T07:18:36.832Z,90810.59
2023-03-26T07:21:02.898Z,90819.47
2023-03-26T07:23:28.979Z,90825.09
2023-03-26T07:25:55.083Z,90826.59
2023-03-26T07:28:21.177Z,90817.66
2023-03-26T07:30:47.266Z,90811.41
2023-03-26T07:33:13.370Z,90801.75
2023-03-26T07:35:39.502Z,90794.31
2023-03-26T07:38:05.603Z,90795.94
2023-03-26T07:40:31.678Z,90799.50
2023-03-26T07:42:57.762Z,90809.53
2023-03-26T07:45:23.874Z,90812.69
2023-03-26T07:47:50.010Z,90814.50
2023-03-26T07:50:17.787Z,90822.00
2023-03-26T07:52:44.449Z,90821.44
2023-03-26T07:55:10.545Z,90832.13
2023-03-26T07:57:36.655Z,90833.78
2023-03-26T08:00:02.808Z,90836.53
2023-03-26T08:02:28.970Z,90838.00
2023-03-26T08:04:55.311Z,90837.53
2023-03-26T08:07:21.529Z,90831.22
2023-03-26T08:09:47.632Z,90829.84
2023-03-26T08:12:13.729Z,90822.22
2023-03-26T08:14:39.823Z,90814.69
2023-03-26T08:17:05.925Z,90807.22
2023-03-26T08:19:31.996Z,90809.31
2023-03-26T08:21:58.093Z,90815.66
2023-03-26T08:24:24.212Z,90813.13
2023-03-26T08:26:50.330Z,90812.44
2023-03-26T08:29:16.433Z,90815.50
2023-03-26T08:31:42.573Z,90804.22
2023-03-26T08:34:08.677Z,90808.31
2023-03-26T08:36:34.798Z,90807.47
2023-03-26T08:39:00.936Z,90811.22
2023-03-26T08:41:27.039Z,90814.19
2023-03-26T08:43:55.103Z,90811.34
2023-03-26T08:46:21.666Z,90818.69
2023-03-26T08:48:47.847Z,90807.84
2023-03-26T08:51:13.952Z,90832.34
2023-03-26T08:53:40.052Z,90840.09
2023-03-26T08:56:06.164Z,90851.72
2023-03-26T08:58:32.276Z,90860.16
2023-03-26T09:00:58.349Z,90849.56
2023-03-26T09:03:24.477Z,90849.22
2023-03-26T09:05:50.601Z,90843.19
2023-03-26T09:08:16.694Z,90840.53
2023-03-26T09:10:42.809Z,90843.25
2023-03-26T09:13:08.922Z,90844.03
2023-03-26T09:15:35.071Z,90847.31
2023-03-26T09:18:01.181Z,90837.34
2023-03-26T09:20:27.314Z,90844.41
2023-03-26T09:22:53.407Z,90839.78
2023-03-26T09:25:19.497Z,90850.88
2023-03-26T09:27:45.607Z,90853.44
2023-03-26T09:30:11.719Z,90852.50
2023-03-26T09:32:37.887Z,90853.09
2023-03-26T09:35:04.027Z,90843.88
2023-03-26T09:37:30.121Z,90826.47
2023-03-26T09:39:56.252Z,90810.66
2023-03-26T09:42:22.324Z,90802.34
2023-03-26T09:44:48.427Z,90794.03
2023-03-26T09:47:14.511Z,90786.19
2023-03-26T09:49:40.610Z,90794.38
2023-03-26T09:52:06.729Z,90793.28
2023-03-26T09:54:32.826Z,90792.72
2023-03-26T09:56:58.972Z,90798.97
2023-03-26T09:59:25.130Z,90791.28
2023-03-26T10:01:51.213Z,90800.56
2023-03-26T10:04:17.310Z,90798.03
2023-03-26T10:06:43.440Z,90793.16
2023-03-26T10:09:09.543Z,90797.41
2023-03-26T10:11:35.672Z,90802.81
2023-03-26T10:14:01.756Z,90816.03
2023-03-26T10:16:27.892Z,90823.28
2023-03-26T10:18:54.042Z,90833.88
2023-03-26T10:21:20.941Z,90835.50
2023-03-26T10:23:48.156Z,90855.03
2023-03-26T10:26:14.263Z,90850.38
2023-03-26T10:28:40.371Z,90850.66
2023-03-26T10:31:06.578Z,90860.69
2023-03-26T10:33:32.767Z,90859.66
2023-03-26T10:35:58.904Z,90851.78
2023-03-26T10:38:25.034Z,90857.03
2023-03-26T10:40:51.152Z,90867.06
2023-03-26T10:43:17.232Z,90868.50
2023-03-26T10:45:43.322Z,90882.66
2023-03-26T10:48:09.418Z,90870.25
2023-03-26T10:50:35.513Z,90869.25
2023-03-26T10:53:01.626Z,90882.09
2023-03-26T10:55:27.727Z,90843.59
2023-03-26T10:57:53.857Z,90856.78
2023-03-26T11:00:19.935Z,90862.69
2023-03-26T11:02:46.128Z,90848.81
2023-03-26T11:05:12.314Z,90838.41
2023-03-26T11:07:38.441Z,90828.50
2023-03-26T11:10:04.576Z,90851.47
2023-03-26T11:12:30.694Z,90830.44
2023-03-26T11:14:56.790Z,90821.66
2023-03-26T11:17:39.230Z,90822.69
2023-03-26T11:20:06.036Z,90824.59
2023-03-26T11:22:32.145Z,90814.00
2023-03-26T11:24:58.246Z,90798.75
2023-03-26T11:27:25.870Z,90782.88
2023-03-26T11:29:52.589Z,90775.22
2023-03-26T11:32:18.836Z,90774.13
2023-03-26T11:34:45.387Z,90780.03
2023-03-26T11:37:11.506Z,90779.53
2023-03-26T11:39:37.596Z,90778.66
2023-03-26T11:42:03.679Z,90775.88
2023-03-26T11:44:29.813Z,90749.41
2023-03-26T11:46:55.989Z,90737.94
2023-03-26T11:49:22.122Z,90719.00
2023-03-26T11:51:48.232Z,90723.00
2023-03-26T11:54:14.339Z,90729.25
2023-03-26T11:56:40.473Z,90710.19
2023-03-26T11:59:26.536Z,90721.19
2023-03-26T12:01:52.689Z,90726.06
2023-03-26T12:04:18.833Z,90725.88
2023-03-26T12:06:44.940Z,90720.41
2023-03-26T12:09:11.021Z,90718.19
2023-03-26T12:11:37.095Z,90701.78
2023-03-26T12:14:03.176Z,90690.75
2023-03-26T12:16:29.287Z,90688.03
2023-03-26T12:18:55.483Z,90681.84
2023-03-26T12:21:21.582Z,90677.34
2023-03-26T12:23:47.684Z,90664.38
2023-03-26T12:26:13.785Z,90665.31
2023-03-26T12:28:40.988Z,90683.75
2023-03-26T12:31:08.138Z,90681.69
2023-03-26T12:33:34.438Z,90664.28
2023-03-26T12:36:00.888Z,90661.56
2023-03-26T12:38:27.103Z,90640.13
2023-03-26T12:40:53.361Z,90643.53
2023-03-26T12:44:52.932Z,90636.81
2023-03-26T12:47:54.230Z,90629.25
2023-03-26T12:48:51.797Z,90616.63
2023-03-26T12:51:17.957Z,90603.94
2023-03-26T12:53:44.052Z,90592.75
2023-03-26T12:56:10.162Z,90582.72
2023-03-26T12:58:36.299Z,90575.22
2023-03-26T13:01:02.406Z,90567.09
2023-03-26T13:03:28.518Z,90560.63
2023-03-26T13:05:54.630Z,90546.41
2023-03-26T13:08:20.737Z,90531.91
2023-03-26T13:10:46.827Z,90528.69
2023-03-26T13:13:12.949Z,90509.19
2023-03-26T13:15:39.050Z,90512.13
2023-03-26T13:18:05.198Z,90508.47
2023-03-26T13:20:31.318Z,90507.91
2023-03-26T13:22:57.417Z,90492.25
2023-03-26T13:25:23.509Z,90480.75
2023-03-26T13:27:49.609Z,90470.31
2023-03-26T13:30:15.738Z,90460.34
2023-03-26T13:32:41.883Z,90456.78
2023-03-26T13:35:08.028Z,90445.44
2023-03-26T13:37:34.164Z,90433.00
2023-03-26T13:40:00.359Z,90422.28
2023-03-26T13:42:26.514Z,90424.16
2023-03-26T13:44:52.608Z,90426.88
2023-03-26T13:47:30.548Z,90429.88
2023-03-26T13:49:56.662Z,90448.25
2023-03-26T13:52:22.746Z,90469.38
2023-03-26T13:54:48.844Z,90486.56
2023-03-26T13:57:15.014Z,90529.47
2023-03-26T13:59:41.183Z,90555.72
2023-03-26T14:02:07.300Z,90578.97
2023-03-26T14:04:33.427Z,90578.81
2023-03-26T14:06:59.538Z,90636.88
2023-03-26T14:09:25.649Z,90618.69
2023-03-26T14:11:51.760Z,90634.63
2023-03-26T14:14:17.827Z,90644.81
2023-03-26T14:16:43.905Z,90647.81
2023-03-26T14:19:09.993Z,90653.59
2023-03-26T14:21:36.090Z,90663.38
2023-03-26T14:24:02.205Z,90678.88
2023-03-26T14:26:28.301Z,90693.06
2023-03-26T14:28:54.414Z,90688.34
2023-03-26T14:31:20.531Z,90682.78
2023-03-26T14:33:46.666Z,90703.34
2023-03-26T14:36:12.755Z,90712.03
2023-03-26T14:38:39.900Z,90718.63
2023-03-26T14:41:06.001Z,90716.47
2023-03-26T14:43:32.122Z,90685.09
2023-03-26T14:45:58.228Z,90651.97
2023-03-26T14:48:24.326Z,90658.81
2023-03-26T14:50:50.447Z,90674.03
2023-03-26T14:53:16.685Z,90669.44
2023-03-26T14:55:42.786Z,90681.31
2023-03-26T14:58:08.878Z,90691.78
2023-03-26T15:00:34.996Z,90689.19
2023-03-26T15:03:01.156Z,90701.34
2023-03-26T15:05:27.280Z,90691.72
2023-03-26T15:07:53.388Z,90693.56
2023-03-26T15:10:19.534Z,90681.41
2023-03-26T15:12:45.630Z,90670.72
2023-03-26T15:15:11.758Z,90673.47
2023-03-26T15:17:37.866Z,90690.31
2023-03-26T15:20:03.995Z,90686.56
2023-03-26T15:22:30.120Z,90684.38
2023-03-26T15:24:56.229Z,90683.81
2023-03-26T15:27:22.348Z,90689.19
2023-03-26T15:29:48.448Z,90678.84
2023-03-26T15:32:14.545Z,90678.47
2023-03-26T15:34:40.676Z,90692.25
2023-03-26T15:37:06.800Z,90674.16
2023-03-26T15:39:32.889Z,90677.69
2023-03-26T15:41:58.978Z,90666.84
2023-03-26T15:44:25.651Z,90658.72
2023-03-26T15:46:51.794Z,90661.66
2023-03-26T15:49:17.894Z,90656.66
2023-03-26T15:51:46.974Z,90673.34
2023-03-26T15:54:13.669Z,90662.13
2023-03-26T15:56:39.847Z,90664.22
2023-03-26T15:59:05.967Z,90666.69
2023-03-26T16:01:32.670Z,90665.44
2023-03-26T16:03:58.874Z,90659.91
2023-03-26T16:06:24.964Z,90649.81
2023-03-26T16:08:51.089Z,90648.59
2023-03-26T16:11:17.212Z,90661.50
2023-03-26T16:13:43.298Z,90659.94
2023-03-26T16:16:09.395Z,90654.47
2023-03-26T16:18:35.601Z,90660.75
2023-03-26T16:21:01.725Z,90643.56
2023-03-26T16:23:27.820Z,90636.03
2023-03-26T16:25:53.889Z,90640.13
2023-03-26T16:28:19.984Z,90637.91
2023-03-26T16:30:46.179Z,90639.84
2023-03-26T16:33:12.332Z,90642.41
2023-03-26T16:35:38.432Z,90647.97
2023-03-26T16:38:04.570Z,90658.31
2023-03-26T16:40:30.669Z,90645.41
2023-03-26T16:42:56.766Z,90640.28
2023-03-26T16:45:22.851Z,90634.34
2023-03-26T16:47:48.949Z,90623.19
2023-03-26T16:50:15.049Z,90631.16
2023-03-26T16:52:41.133Z,90629.03
2023-03-26T16:55:07.252Z,90624.13
2023-03-26T16:57:33.346Z,90624.97
2023-03-26T17:00:05.833Z,90619.16
2023-03-26T17:02:33.181Z,90615.88
2023-03-26T17:04:59.300Z,90611.22
2023-03-26T17:07:25.379Z,90611.00
2023-03-26T17:09:51.470Z,90604.56
2023-03-26T17:12:17.562Z,90606.69
2023-03-26T17:14:43.651Z,90598.38
2023-03-26T17:17:09.763Z,90592.50
2023-03-26T17:19:35.873Z,90580.56
2023-03-26T17:22:01.972Z,90588.50
2023-03-26T17:24:28.055Z,90579.44
2023-03-26T17:26:54.160Z,90566.69
2023-03-26T17:29:20.283Z,90567.69
2023-03-26T17:31:46.430Z,90567.97
2023-03-26T17:34:12.522Z,90559.00
2023-03-26T17:36:38.612Z,90559.41
